createdAt,value
2022-12-29T00:00:56.619Z,100024.09
2022-12-29T00:03:23.663Z,100031.47
2022-12-29T00:05:59.405Z,100011.38
2022-12-29T00:08:40.430Z,100017.66
2022-12-29T00:11:21.035Z,100014.22
2022-12-29T00:14:06.723Z,100012.88
2022-12-29T00:16:35.018Z,100010.81
2022-12-29T00:19:02.459Z,100005.22
2022-12-29T00:21:48.638Z,100003.97
2022-12-29T00:24:23.110Z,100002.19
2022-12-29T00:27:18.453Z,99989.97
2022-12-29T00:30:03.655Z,99999.34
2022-12-29T00:32:48.755Z,100005.00
2022-12-29T00:35:33.157Z,100003.50
2022-12-29T00:38:24.785Z,100003.91
2022-12-29T00:41:10.428Z,99994.53
2022-12-29T00:43:55.714Z,99977.75
2022-12-29T00:46:22.567Z,99979.81
2022-12-29T00:49:07.788Z,99998.41
2022-12-29T00:51:34.644Z,99979.41
2022-12-29T00:54:01.456Z,99977.34
2022-12-29T00:56:28.566Z,99983.84
2022-12-29T00:58:55.449Z,99981.63
2022-12-29T01:01:22.443Z,99983.00
2022-12-29T01:03:49.321Z,99974.47
2022-12-29T01:06:16.348Z,99987.84
2022-12-29T01:08:45.313Z,99981.06
2022-12-29T01:11:13.944Z,99981.91
2022-12-29T01:13:42.199Z,99977.06
2022-12-29T01:16:09.414Z,99971.16
2022-12-29T01:18:36.391Z,99980.53
2022-12-29T01:21:07.598Z,99975.72
2022-12-29T01:23:34.502Z,99978.47
2022-12-29T01:26:17.246Z,99979.97
2022-12-29T01:28:45.652Z,99978.88
2022-12-29T01:31:15.239Z,99985.75
2022-12-29T01:33:43.346Z,99986.31
2022-12-29T01:36:15.532Z,99971.84
2022-12-29T01:38:43.100Z,99973.91
2022-12-29T01:41:14.507Z,99972.53
2022-12-29T01:43:45.364Z,99981.75
2022-12-29T01:46:49.623Z,99979.56
2022-12-29T01:49:28.457Z,99966.19
2022-12-29T01:52:09.015Z,99970.59
2022-12-29T01:54:43.498Z,99970.75
2022-12-29T01:57:20.291Z,99962.63
2022-12-29T02:00:05.471Z,99972.25
2022-12-29T02:02:33.680Z,99969.50
2022-12-29T02:05:11.232Z,99966.91
2022-12-29T02:07:39.557Z,99965.63
2022-12-29T02:10:07.272Z,99971.72
2022-12-29T02:12:34.678Z,99980.09
2022-12-29T02:15:04.139Z,99971.97
2022-12-29T02:18:09.296Z,99972.81
2022-12-29T02:21:27.283Z,99976.94
2022-12-29T02:25:01.956Z,99969.78
2022-12-29T02:27:54.126Z,99978.59
2022-12-29T02:30:53.946Z,99975.03
2022-12-29T02:33:38.640Z,99960.97
2022-12-29T02:36:20.464Z,99937.84
2022-12-29T02:39:13.152Z,99934.94
2022-12-29T02:42:15.572Z,99937.56
2022-12-29T02:45:07.226Z,99930.41
2022-12-29T02:47:51.019Z,99937.97
2022-12-29T02:50:40.666Z,99942.66
2022-12-29T02:53:12.309Z,99933.72
2022-12-29T02:55:39.733Z,99940.28
2022-12-29T02:58:23.219Z,99931.94
2022-12-29T03:01:22.988Z,99924.34
2022-12-29T03:03:49.915Z,99914.72
2022-12-29T03:06:34.407Z,99920.75
2022-12-29T03:09:29.293Z,99930.97
2022-12-29T03:12:26.156Z,99918.31
2022-12-29T03:15:23.812Z,99920.34
2022-12-29T03:18:05.752Z,99901.22
2022-12-29T03:20:59.016Z,99914.69
2022-12-29T03:23:27.716Z,99901.50
2022-12-29T03:25:59.108Z,99908.78
2022-12-29T03:28:37.397Z,99909.91
2022-12-29T03:31:06.035Z,99901.34
2022-12-29T03:33:34.115Z,99896.13
2022-12-29T03:36:06.196Z,99892.41
2022-12-29T03:38:44.004Z,99879.59
2022-12-29T03:41:17.374Z,99880.16
2022-12-29T03:43:45.375Z,99879.88
2022-12-29T03:46:12.366Z,99865.28
2022-12-29T03:48:39.376Z,99886.34
2022-12-29T03:51:06.313Z,99861.03
2022-12-29T03:53:33.381Z,99865.31
2022-12-29T03:56:00.273Z,99872.59
2022-12-29T03:58:27.127Z,99868.75
2022-12-29T04:00:53.941Z,99872.75
2022-12-29T04:03:20.856Z,99884.56
2022-12-29T04:05:47.698Z,99872.88
2022-12-29T04:08:14.545Z,99895.97
2022-12-29T04:10:41.558Z,99883.34
2022-12-29T04:13:08.390Z,99887.47
2022-12-29T04:15:35.531Z,99896.00
2022-12-29T04:18:02.428Z,99889.13
2022-12-29T04:20:47.729Z,99897.34
2022-12-29T04:23:14.654Z,99893.25
2022-12-29T04:25:41.508Z,99902.88
2022-12-29T04:28:09.008Z,99885.66
2022-12-29T04:30:36.038Z,99883.19
2022-12-29T04:33:03.002Z,99896.81
2022-12-29T04:35:29.859Z,99881.25
2022-12-29T04:37:56.789Z,99897.06
2022-12-29T04:40:24.704Z,99881.94
2022-12-29T04:42:52.044Z,99884.94
2022-12-29T04:45:19.041Z,99879.28
2022-12-29T04:47:45.902Z,99871.31
2022-12-29T04:50:12.883Z,99856.84
2022-12-29T04:52:40.061Z,99864.84
2022-12-29T04:55:08.071Z,99889.06
2022-12-29T04:57:35.066Z,99898.03
2022-12-29T05:00:02.343Z,99877.94
2022-12-29T05:02:29.431Z,99892.09
2022-12-29T05:04:56.631Z,99885.09
2022-12-29T05:07:23.448Z,99889.75
2022-12-29T05:09:50.319Z,99897.72
2022-12-29T05:12:17.155Z,99890.44
2022-12-29T05:14:44.896Z,99890.44
2022-12-29T05:17:11.816Z,99884.94
2022-12-29T05:19:39.207Z,99889.06
2022-12-29T05:22:06.271Z,99891.28
2022-12-29T05:24:34.229Z,99886.16
2022-12-29T05:27:01.143Z,99881.63
2022-12-29T05:29:28.043Z,99881.09
2022-12-29T05:31:54.948Z,99884.94
2022-12-29T05:34:21.851Z,99877.50
2022-12-29T05:36:48.860Z,99882.31
2022-12-29T05:39:15.721Z,99882.03
2022-12-29T05:41:42.543Z,99879.56
2022-12-29T05:44:11.274Z,99879.41
2022-12-29T05:46:38.529Z,99882.69
2022-12-29T05:49:06.947Z,99879.38
2022-12-29T05:51:34.016Z,99882.81
2022-12-29T05:54:00.879Z,99885.56
2022-12-29T05:56:27.719Z,99866.03
2022-12-29T05:58:54.550Z,99877.44
2022-12-29T06:01:21.454Z,99885.16
2022-12-29T06:03:48.810Z,99885.16
2022-12-29T06:06:15.875Z,99869.97
2022-12-29T06:08:42.952Z,99860.19
2022-12-29T06:11:09.911Z,99874.38
2022-12-29T06:13:36.949Z,99869.84
2022-12-29T06:16:04.108Z,99874.69
2022-12-29T06:18:30.971Z,99859.25
2022-12-29T06:21:05.440Z,99869.69
2022-12-29T06:23:32.369Z,99873.94
2022-12-29T06:25:59.322Z,99860.59
2022-12-29T06:28:26.251Z,99857.66
2022-12-29T06:30:53.086Z,99862.28
2022-12-29T06:33:19.945Z,99851.94
2022-12-29T06:35:47.014Z,99865.16
2022-12-29T06:38:14.197Z,99853.34
2022-12-29T06:40:42.228Z,99857.72
2022-12-29T06:43:09.200Z,99856.53
2022-12-29T06:45:36.066Z,99863.78
2022-12-29T06:48:03.032Z,99871.22
2022-12-29T06:50:29.969Z,99875.19
2022-12-29T06:52:56.781Z,99863.47
2022-12-29T06:55:23.605Z,99865.91
2022-12-29T06:57:50.483Z,99869.09
2022-12-29T07:00:22.475Z,99857.66
2022-12-29T07:02:49.968Z,99855.06
2022-12-29T07:05:17.053Z,99852.16
2022-12-29T07:07:43.981Z,99857.91
2022-12-29T07:10:11.260Z,99850.91
2022-12-29T07:12:38.219Z,99837.38
2022-12-29T07:15:05.448Z,99865.50
2022-12-29T07:17:32.288Z,99862.91
2022-12-29T07:19:59.171Z,99878.13
2022-12-29T07:22:26.118Z,99871.66
2022-12-29T07:24:52.948Z,99877.31
2022-12-29T07:27:19.866Z,99882.63
2022-12-29T07:29:46.749Z,99886.91
2022-12-29T07:32:13.605Z,99875.31
2022-12-29T07:34:40.736Z,99873.06
2022-12-29T07:37:07.595Z,99875.28
2022-12-29T07:39:34.493Z,99871.69
2022-12-29T07:42:05.157Z,99887.47
2022-12-29T07:44:32.469Z,99893.16
2022-12-29T07:46:59.506Z,99888.59
2022-12-29T07:49:27.355Z,99888.31
2022-12-29T07:51:54.174Z,99893.50
2022-12-29T07:54:21.234Z,99889.25
2022-12-29T07:56:50.516Z,99889.06
2022-12-29T07:59:17.524Z,99885.38
2022-12-29T08:01:44.526Z,99895.41
2022-12-29T08:04:11.510Z,99912.31
2022-12-29T08:06:38.769Z,99912.78
2022-12-29T08:09:13.667Z,99915.28
2022-12-29T08:11:45.635Z,99919.88
2022-12-29T08:14:12.515Z,99912.31
2022-12-29T08:16:39.538Z,99921.19
2022-12-29T08:19:06.434Z,99920.78
2022-12-29T08:21:33.409Z,99927.03
2022-12-29T08:24:00.466Z,99935.13
2022-12-29T08:26:27.371Z,99935.75
2022-12-29T08:28:56.099Z,99926.28
2022-12-29T08:31:24.210Z,99934.56
2022-12-29T08:33:51.594Z,99945.03
2022-12-29T08:36:18.605Z,99932.78
2022-12-29T08:38:45.418Z,99934.28
2022-12-29T08:41:12.219Z,99942.97
2022-12-29T08:43:39.450Z,99945.75
2022-12-29T08:46:06.377Z,99929.78
2022-12-29T08:48:33.271Z,99934.88
2022-12-29T08:51:00.137Z,99936.63
2022-12-29T08:53:27.161Z,99935.44
2022-12-29T08:56:04.736Z,99941.19
2022-12-29T08:58:32.949Z,99931.53
2022-12-29T09:01:00.086Z,99941.31
2022-12-29T09:04:03.777Z,99958.69
2022-12-29T09:06:15.531Z,99951.69
2022-12-29T09:08:42.366Z,99946.31
2022-12-29T09:11:22.867Z,99935.41
2022-12-29T09:13:50.198Z,99944.22
2022-12-29T09:16:18.428Z,99949.91
2022-12-29T09:18:46.124Z,99952.13
2022-12-29T09:21:13.589Z,99953.56
2022-12-29T09:23:41.386Z,99957.53
2022-12-29T09:26:08.624Z,99959.13
2022-12-29T09:28:36.147Z,99970.47
2022-12-29T09:31:03.634Z,99961.06
2022-12-29T09:33:30.915Z,99973.09
2022-12-29T09:35:59.529Z,99986.53
2022-12-29T09:38:27.981Z,99974.34
2022-12-29T09:41:00.890Z,99979.03
2022-12-29T09:43:57.906Z,99988.50
2022-12-29T09:46:28.406Z,100005.41
2022-12-29T09:49:43.820Z,100012.59
2022-12-29T09:52:20.376Z,99989.63
2022-12-29T09:58:06.417Z,99989.91
2022-12-29T10:01:02.639Z,99998.91
2022-12-29T10:03:47.908Z,99987.69
2022-12-29T10:06:20.285Z,99999.56
2022-12-29T10:09:07.748Z,99997.63
2022-12-29T10:12:27.238Z,99994.78
2022-12-29T10:15:05.992Z,99999.25
2022-12-29T10:18:10.478Z,100005.47
2022-12-29T10:21:02.396Z,99999.09
2022-12-29T10:23:53.402Z,100002.00
2022-12-29T10:26:42.090Z,100000.72
2022-12-29T10:29:23.281Z,100007.63
2022-12-29T10:32:04.351Z,100007.41
2022-12-29T10:34:38.252Z,100000.66
2022-12-29T10:37:19.130Z,99997.19
2022-12-29T10:39:53.600Z,99993.44
2022-12-29T10:42:35.552Z,99997.41
2022-12-29T10:45:02.403Z,99991.56
2022-12-29T10:47:35.343Z,100003.34
2022-12-29T10:50:04.197Z,99998.75
2022-12-29T10:52:33.131Z,100005.00
2022-12-29T10:55:09.447Z,99987.59
2022-12-29T10:57:45.730Z,99990.31
2022-12-29T11:00:21.469Z,99991.47
2022-12-29T11:03:36.783Z,99983.94
2022-12-29T11:06:26.808Z,100005.06
2022-12-29T11:08:59.697Z,99997.97
2022-12-29T11:11:34.948Z,100015.63
2022-12-29T11:14:30.565Z,100004.41
2022-12-29T11:17:03.606Z,100027.50
2022-12-29T11:19:39.011Z,100028.31
2022-12-29T11:22:28.988Z,100039.03
2022-12-29T11:25:07.416Z,100038.59
2022-12-29T11:27:34.253Z,100037.53
2022-12-29T11:30:01.137Z,100038.97
2022-12-29T11:32:33.026Z,100046.09
2022-12-29T11:35:00.398Z,100044.59
2022-12-29T11:37:39.839Z,100042.81
2022-12-29T11:40:18.173Z,100039.25
2022-12-29T11:43:05.540Z,100040.72
2022-12-29T11:45:38.093Z,100035.47
2022-12-29T11:48:13.176Z,100042.34
2022-12-29T11:50:43.002Z,100047.72
2022-12-29T11:53:20.901Z,100032.91
2022-12-29T11:55:57.169Z,100031.47
2022-12-29T11:58:39.492Z,100026.88
2022-12-29T12:01:14.651Z,100025.00
2022-12-29T12:04:12.329Z,100030.72
2022-12-29T12:06:59.235Z,100026.75
2022-12-29T12:09:35.978Z,100020.06
2022-12-29T12:12:04.361Z,100025.00
2022-12-29T12:14:47.867Z,100029.81
2022-12-29T12:17:25.543Z,100022.38
2022-12-29T12:20:03.510Z,100022.44
2022-12-29T12:22:43.790Z,100020.19
2022-12-29T12:25:30.490Z,100030.97
2022-12-29T12:28:01.695Z,100025.50
2022-12-29T12:30:40.061Z,100028.81
2022-12-29T12:33:27.463Z,100025.84
2022-12-29T12:36:09.186Z,100027.47
2022-12-29T12:39:07.139Z,100022.22
2022-12-29T12:42:20.252Z,100022.59
2022-12-29T12:45:26.047Z,100011.31
2022-12-29T12:48:05.006Z,100019.50
2022-12-29T12:50:53.775Z,100024.69
2022-12-29T12:53:30.359Z,100020.28
2022-12-29T12:56:49.981Z,100020.59
2022-12-29T12:59:41.372Z,100007.56
2022-12-29T13:02:38.238Z,100010.19
2022-12-29T13:05:39.994Z,100003.34
2022-12-29T13:08:31.437Z,99997.84
2022-12-29T13:11:24.879Z,100006.28
2022-12-29T13:14:12.529Z,100009.66
2022-12-29T13:16:51.758Z,100002.97
2022-12-29T13:20:16.137Z,99998.13
2022-12-29T13:23:17.836Z,99995.72
2022-12-29T13:26:00.315Z,100007.41
2022-12-29T13:28:53.895Z,100003.22
2022-12-29T13:31:45.962Z,99999.53
2022-12-29T13:34:37.805Z,100007.34
2022-12-29T13:37:18.121Z,100001.59
2022-12-29T13:39:53.375Z,99998.28
2022-12-29T13:42:22.188Z,99994.31
2022-12-29T13:44:56.435Z,99991.03
2022-12-29T13:47:31.691Z,100000.06
2022-12-29T13:50:02.139Z,100009.38
2022-12-29T13:52:38.493Z,100006.91
2022-12-29T13:55:32.367Z,100008.44
2022-12-29T13:58:38.418Z,100005.69
2022-12-29T14:01:21.227Z,100001.56
2022-12-29T14:03:57.559Z,100022.81
2022-12-29T14:06:26.980Z,100024.22
2022-12-29T14:09:03.440Z,100029.31
2022-12-29T14:11:40.145Z,100036.41
2022-12-29T14:14:21.472Z,100038.59
2022-12-29T14:16:48.989Z,100052.94
2022-12-29T14:19:28.337Z,100060.13
2022-12-29T14:22:05.477Z,100064.00
2022-12-29T14:24:38.532Z,100069.06
2022-12-29T14:27:11.426Z,100065.09
2022-12-29T14:29:41.363Z,100060.81
2022-12-29T14:32:31.148Z,100051.84
2022-12-29T14:35:37.029Z,100044.44
2022-12-29T14:38:17.499Z,100055.31
2022-12-29T14:40:45.087Z,100038.50
2022-12-29T14:43:24.358Z,100046.94
2022-12-29T14:46:00.168Z,100055.19
2022-12-29T14:48:45.233Z,100054.34
2022-12-29T14:51:31.959Z,100055.75
2022-12-29T14:53:58.973Z,100057.22
2022-12-29T14:56:29.502Z,100053.25
2022-12-29T14:59:05.047Z,100060.94
2022-12-29T15:01:44.690Z,100055.47
2022-12-29T15:04:26.292Z,100058.22
2022-12-29T15:06:53.991Z,100061.22
2022-12-29T15:09:44.618Z,100055.03
2022-12-29T15:12:20.303Z,100048.81
2022-12-29T15:14:56.386Z,100061.22
2022-12-29T15:17:35.342Z,100061.78
2022-12-29T15:20:26.134Z,100060.41
2022-12-29T15:23:05.382Z,100076.09
2022-12-29T15:25:32.548Z,100079.09
2022-12-29T15:28:06.315Z,100100.81
2022-12-29T15:30:33.267Z,100095.53
2022-12-29T15:33:00.116Z,100101.72
2022-12-29T15:35:35.463Z,100111.69
2022-12-29T15:38:30.303Z,100118.00
2022-12-29T15:41:18.014Z,100117.84
2022-12-29T15:43:58.712Z,100123.22
2022-12-29T15:46:28.879Z,100127.28
2022-12-29T15:48:55.751Z,100116.72
2022-12-29T15:51:39.249Z,100113.84
2022-12-29T15:54:07.271Z,100123.34
2022-12-29T15:56:34.650Z,100129.00
2022-12-29T15:59:02.122Z,100134.22
2022-12-29T16:01:36.525Z,100140.06
2022-12-29T16:04:09.575Z,100142.97
2022-12-29T16:06:39.382Z,100147.66
2022-12-29T16:09:34.434Z,100150.53
2022-12-29T16:12:08.917Z,100144.03
2022-12-29T16:14:45.943Z,100146.38
2022-12-29T16:17:27.719Z,100159.75
2022-12-29T16:20:02.629Z,100152.19
2022-12-29T16:22:34.035Z,100154.28
2022-12-29T16:25:23.157Z,100155.22
2022-12-29T16:27:51.125Z,100159.13
2022-12-29T16:30:33.579Z,100153.84
2022-12-29T16:33:04.212Z,100159.19
2022-12-29T16:35:43.787Z,100158.28
2022-12-29T16:38:23.330Z,100158.72
2022-12-29T16:41:05.217Z,100148.53
2022-12-29T16:43:42.806Z,100146.78
2022-12-29T16:46:44.501Z,100147.31
2022-12-29T16:49:23.460Z,100144.25
2022-12-29T16:51:51.405Z,100162.53
2022-12-29T16:54:36.909Z,100158.28
2022-12-29T16:57:04.785Z,100152.22
2022-12-29T16:59:43.659Z,100169.28
2022-12-29T17:02:22.350Z,100162.66
2022-12-29T17:04:50.768Z,100181.03
2022-12-29T17:07:26.188Z,100181.59
2022-12-29T17:09:56.779Z,100180.72
2022-12-29T17:12:28.808Z,100184.03
2022-12-29T17:15:28.059Z,100193.41
2022-12-29T17:17:56.473Z,100193.41
2022-12-29T17:20:30.579Z,100199.38
2022-12-29T17:22:59.225Z,100200.97
2022-12-29T17:25:39.188Z,100188.34
2022-12-29T17:28:26.031Z,100185.03
2022-12-29T17:31:02.369Z,100160.84
2022-12-29T17:33:35.199Z,100156.13
2022-12-29T17:36:02.097Z,100175.03
2022-12-29T17:38:39.921Z,100174.38
2022-12-29T17:41:14.897Z,100177.94
2022-12-29T17:43:41.789Z,100181.34
2022-12-29T17:46:09.030Z,100187.41
2022-12-29T17:48:36.163Z,100173.22
2022-12-29T17:51:03.267Z,100169.50
2022-12-29T17:53:31.307Z,100173.94
2022-12-29T17:55:58.383Z,100167.13
2022-12-29T17:58:31.592Z,100170.59
2022-12-29T18:01:01.619Z,100176.13
2022-12-29T18:03:36.275Z,100168.66
2022-12-29T18:06:06.618Z,100170.38
2022-12-29T18:08:35.368Z,100165.78
2022-12-29T18:11:02.563Z,100167.19
2022-12-29T18:13:43.655Z,100169.16
2022-12-29T18:16:14.015Z,100166.66
2022-12-29T18:18:41.000Z,100168.84
2022-12-29T18:21:20.004Z,100163.09
2022-12-29T18:23:47.801Z,100168.19
2022-12-29T18:26:28.056Z,100166.09
2022-12-29T18:28:57.095Z,100170.81
2022-12-29T18:31:30.572Z,100174.22
2022-12-29T18:34:00.048Z,100170.25
2022-12-29T18:36:27.611Z,100171.69
2022-12-29T18:38:54.866Z,100176.03
2022-12-29T18:41:29.625Z,100181.66
2022-12-29T18:43:57.708Z,100180.84
2022-12-29T18:46:25.156Z,100177.13
2022-12-29T18:48:54.442Z,100182.34
2022-12-29T18:51:24.511Z,100186.63
2022-12-29T18:53:53.985Z,100176.94
2022-12-29T18:56:22.599Z,100185.72
2022-12-29T18:58:49.958Z,100190.09
2022-12-29T19:01:23.742Z,100185.28
2022-12-29T19:03:53.037Z,100185.28
2022-12-29T19:06:23.370Z,100176.00
2022-12-29T19:08:50.194Z,100175.00
2022-12-29T19:11:17.782Z,100176.56
2022-12-29T19:13:44.760Z,100188.75
2022-12-29T19:16:21.111Z,100180.09
2022-12-29T19:19:05.711Z,100177.13
2022-12-29T19:21:36.413Z,100178.44
2022-12-29T19:24:03.353Z,100179.50
2022-12-29T19:26:34.548Z,100187.59
2022-12-29T19:29:01.670Z,100175.72
2022-12-29T19:31:28.813Z,100179.16
2022-12-29T19:33:55.806Z,100184.00
2022-12-29T19:36:23.140Z,100181.06
2022-12-29T19:38:51.267Z,100188.53
2022-12-29T19:41:18.146Z,100196.19
2022-12-29T19:43:45.150Z,100189.94
2022-12-29T19:46:17.443Z,100199.53
2022-12-29T19:48:44.501Z,100192.78
2022-12-29T19:51:17.320Z,100204.41
2022-12-29T19:53:45.836Z,100196.00
2022-12-29T19:56:14.198Z,100204.31
2022-12-29T19:58:46.560Z,100197.53
2022-12-29T20:01:18.366Z,100205.00
2022-12-29T20:03:45.495Z,100203.09
2022-12-29T20:06:12.946Z,100194.09
2022-12-29T20:08:40.778Z,100198.38
2022-12-29T20:11:13.067Z,100198.72
2022-12-29T20:13:41.147Z,100201.69
2022-12-29T20:16:16.060Z,100208.53
2022-12-29T20:18:43.771Z,100219.94
2022-12-29T20:21:21.186Z,100218.38
2022-12-29T20:23:49.414Z,100234.50
2022-12-29T20:26:20.206Z,100239.13
2022-12-29T20:28:47.843Z,100237.94
2022-12-29T20:31:24.589Z,100241.03
2022-12-29T20:33:51.728Z,100235.75
2022-12-29T20:36:25.532Z,100247.63
2022-12-29T20:38:57.069Z,100254.34
2022-12-29T20:41:24.228Z,100251.03
2022-12-29T20:43:53.156Z,100255.03
2022-12-29T20:46:22.427Z,100260.34
2022-12-29T20:48:51.784Z,100251.47
2022-12-29T20:51:20.936Z,100244.03
2022-12-29T20:53:48.029Z,100257.78
2022-12-29T20:56:21.828Z,100267.25
2022-12-29T20:59:25.717Z,100249.34
2022-12-29T21:01:37.239Z,100258.56
2022-12-29T21:04:05.513Z,100264.03
2022-12-29T21:06:33.570Z,100258.75
2022-12-29T21:09:00.735Z,100247.19
2022-12-29T21:11:28.088Z,100257.34
2022-12-29T21:13:59.272Z,100265.31
2022-12-29T21:16:28.123Z,100264.47
2022-12-29T21:18:55.147Z,100268.03
2022-12-29T21:21:24.917Z,100262.81
2022-12-29T21:23:52.644Z,100275.28
2022-12-29T21:26:23.037Z,100280.84
2022-12-29T21:28:51.200Z,100275.50
2022-12-29T21:31:29.020Z,100289.91
2022-12-29T21:33:57.250Z,100291.94
2022-12-29T21:36:24.952Z,100292.63
2022-12-29T21:38:52.621Z,100303.41
2022-12-29T21:41:20.643Z,100310.47
2022-12-29T21:44:07.143Z,100305.56
2022-12-29T21:46:38.527Z,100304.28
2022-12-29T21:49:06.465Z,100315.97
2022-12-29T21:51:53.603Z,100325.19
2022-12-29T21:54:47.480Z,100330.47
2022-12-29T21:57:37.659Z,100333.84
2022-12-29T22:00:28.303Z,100334.97
2022-12-29T22:03:21.911Z,100337.06
2022-12-29T22:06:09.606Z,100343.09
2022-12-29T22:08:55.441Z,100341.06
2022-12-29T22:11:41.331Z,100351.13
2022-12-29T22:14:08.277Z,100350.22
2022-12-29T22:16:35.100Z,100348.91
2022-12-29T22:19:02.198Z,100357.69
2022-12-29T22:21:29.058Z,100363.91
2022-12-29T22:23:55.871Z,100361.31
2022-12-29T22:26:22.713Z,100375.44
2022-12-29T22:28:51.909Z,100376.88
2022-12-29T22:31:27.925Z,100372.91
2022-12-29T22:34:01.304Z,100380.38
2022-12-29T22:36:30.006Z,100379.88
2022-12-29T22:38:57.078Z,100375.63
2022-12-29T22:41:24.607Z,100387.88
2022-12-29T22:43:51.749Z,100386.81
2022-12-29T22:46:18.908Z,100391.41
2022-12-29T22:48:46.244Z,100403.59
2022-12-29T22:51:16.074Z,100402.78
2022-12-29T22:53:42.957Z,100404.88
2022-12-29T22:56:13.061Z,100417.44
2022-12-29T22:58:45.252Z,100413.31
2022-12-29T23:01:16.474Z,100415.25
2022-12-29T23:03:44.489Z,100406.91
2022-12-29T23:06:14.292Z,100415.94
2022-12-29T23:08:41.115Z,100410.28
2022-12-29T23:11:11.144Z,100415.94
2022-12-29T23:13:38.869Z,100427.88
2022-12-29T23:16:05.831Z,100432.97
2022-12-29T23:18:32.721Z,100427.22
2022-12-29T23:20:59.920Z,100416.75
2022-12-29T23:23:49.173Z,100423.47
2022-12-29T23:26:19.311Z,100417.44
2022-12-29T23:28:47.326Z,100419.75
2022-12-29T23:31:15.295Z,100428.72
2022-12-29T23:33:42.302Z,100426.81
2022-12-29T23:36:09.816Z,100431.06
2022-12-29T23:38:36.652Z,100423.75
2022-12-29T23:41:03.679Z,100433.81
2022-12-29T23:43:30.520Z,100437.22
2022-12-29T23:45:57.403Z,100445.47
2022-12-29T23:48:24.267Z,100446.72
2022-12-29T23:50:55.731Z,100440.88
2022-12-29T23:53:22.619Z,100451.31
2022-12-29T23:55:54.845Z,100451.72
2022-12-29T23:58:22.678Z,100451.41
